Аэропорт: Актобе. Актобе

ICAO: UATT

METAR:
2020-08-13 11:00:00
UATT 131100Z 23004MPS 190V280 CAVOK 28/04 Q1008 R31/70D NOSIG RMK QFE736/0981
METAR:
2020-08-13 05:00:00
TAF UATT 130500Z 1306/1406 24003MPS CAVOK TX27/1312Z TN14/1401Z TEMPO 1400/1406 -SHRA BKN040CB